Takaya — VG2773 — position and weather

sailwx.info

Track history (hours):
 
Tides and Currents Weather Stations Pressure Air Temp Water Temp Dewpoint Dewpoint Depression Visibility Wind Speed Wind Dir Waves Ship Positions

Takaya

Last reported at 2016-May-03 06:33 UTC. Time now 2016-May-03 06:52 UTC.
Position N 49°17' W 123°06'.

; draft 1.4 m.

Type: Port tender. MMSI: 316014014.

Date/timePositionNaut miles runAvg speedWind from/ knotsBaromVisibWave heightAir tempDewpointWater temp
2016-May-03 06:33N 49°17' W 123°06'0 0.0
2016-May-03 05:33N 49°17' W 123°06'0 0.0
2016-May-03 04:33N 49°17' W 123°06'0 0.0
2016-May-03 03:33N 49°17' W 123°06'0 0.0
2016-May-03 02:04N 49°17' W 123°06'0 0.1
2016-May-03 01:33N 49°17' W 123°06'0 0.0
2016-May-03 00:31N 49°17' W 123°06'0 0.0
2016-May-02 23:33N 49°17' W 123°06'2 1.7
2016-May-02 22:34N 49°18' W 123°04'2 1.6
2016-May-02 21:33N 49°17' W 123°06'0 0.0
2016-May-02 20:33N 49°17' W 123°06'0 0.0
2016-May-02 19:33N 49°17' W 123°06'1 1.4
2016-May-02 18:33N 49°18' W 123°08'6 6.2
2016-May-02 17:33N 49°18' W 122°58'5 5.0
2016-May-02 16:33N 49°17' W 123°06'0 0.0
2016-May-02 15:33N 49°17' W 123°06'0 0.0
2016-May-02 14:33N 49°17' W 123°06'0 0.0
2016-May-02 13:33N 49°17' W 123°06'0 0.0
2016-May-02 12:33N 49°17' W 123°06'0 0.0
2016-May-02 11:33N 49°17' W 123°06'0 0.0
2016-May-02 10:31N 49°17' W 123°06'0 0.0
2016-May-02 09:30N 49°17' W 123°06'0 0.0
2016-May-02 08:33N 49°17' W 123°06'0 0.0
2016-May-02 07:33N 49°17' W 123°06'0 0.0
2016-May-02 06:33N 49°17' W 123°06'0 0.0
2016-May-02 05:25N 49°17' W 123°06'0 0.0
2016-May-02 04:32N 49°17' W 123°06'0 0.0
2016-May-02 03:33N 49°17' W 123°06'0 0.0
2016-May-02 01:33N 49°17' W 123°06'0 0.0
2016-May-02 00:33N 49°17' W 123°06'1 1.5
2016-May-01 23:34N 49°18' W 123°07'1 0.7
2016-May-01 22:34N 49°19' W 123°08'1 0.6
2016-May-01 21:33N 49°19' W 123°09'3 2.7
2016-May-01 20:33N 49°17' W 123°06'0 0.0
2016-May-01 19:33N 49°17' W 123°06'1 0.7
2016-May-01 18:34N 49°18' W 123°07'2 2.3
2016-May-01 17:33N 49°17' W 123°10'2 2.5
2016-May-01 16:33N 49°17' W 123°06'0 0.0
2016-May-01 15:33N 49°17' W 123°06'0 0.0
2016-May-01 14:33N 49°17' W 123°06'1 1.3
2016-May-01 13:33N 49°18' W 123°05'1 1.3
2016-May-01 12:33N 49°17' W 123°06'0 0.0
2016-May-01 11:33N 49°17' W 123°06'0 0.0
2016-May-01 10:33N 49°17' W 123°06'0 0.0
2016-May-01 09:33N 49°17' W 123°06'0 0.0
2016-May-01 08:33N 49°17' W 123°06'0 0.0
2016-May-01 07:33N 49°17' W 123°06'0 0.0
2016-May-01 06:33N 49°17' W 123°06'0 0.0
2016-May-01 05:33N 49°17' W 123°06'0 0.0
2016-May-01 04:33N 49°17' W 123°06'0 0.0
2016-May-01 03:33N 49°17' W 123°06'0 0.0
2016-May-01 02:11N 49°17' W 123°06'0 0.0
2016-May-01 01:33N 49°17' W 123°06'0 0.0
2016-May-01 00:30N 49°17' W 123°06'0 0.3
2016-Apr-30 23:33N 49°17' W 123°06'5 5.4
2016-Apr-30 22:33N 49°18' W 122°58'2 2.2
2016-Apr-30 21:33N 49°18' W 123°01'3 3.3
2016-Apr-30 20:33N 49°17' W 123°06'0 0.0
2016-Apr-30 19:33N 49°17' W 123°06'0 0.0
2016-Apr-30 18:33N 49°17' W 123°06'2 1.6
2016-Apr-30 17:33N 49°18' W 123°04'2 1.6
2016-Apr-30 16:33N 49°17' W 123°06'0 0.0
2016-Apr-30 15:33N 49°17' W 123°06'2 1.5
2016-Apr-30 14:33N 49°19' W 123°06'2 1.6
2016-Apr-30 13:33N 49°17' W 123°04'1 1.3
2016-Apr-30 12:33N 49°17' W 123°06'0 0.0
2016-Apr-30 11:33N 49°17' W 123°06'0 0.0
2016-Apr-30 10:33N 49°17' W 123°06'0 0.0
2016-Apr-30 09:33N 49°17' W 123°06'0 0.0
2016-Apr-30 08:33N 49°17' W 123°06'0 0.0
2016-Apr-30 07:33N 49°17' W 123°06'0 0.0
2016-Apr-30 06:33N 49°17' W 123°06'0 0.0
2016-Apr-30 05:33N 49°17' W 123°06'0 0.0
2016-Apr-30 04:33N 49°17' W 123°06'0 0.0
2016-Apr-30 03:33N 49°17' W 123°06'0 0.0
2016-Apr-30 02:06N 49°17' W 123°06'0 0.0
2016-Apr-30 01:34N 49°17' W 123°06'0 0.0
2016-Apr-30 00:33N 49°17' W 123°06'1 1.4
2016-Apr-29 23:33N 49°18' W 123°07'1 1.4
2016-Apr-29 22:33N 49°17' W 123°06'0 0.0
2016-Apr-29 21:31N 49°17' W 123°06'0 0.0
2016-Apr-29 20:33N 49°17' W 123°06'0 0.0
2016-Apr-29 19:33N 49°17' W 123°06'0 0.0
2016-Apr-29 18:33N 49°17' W 123°06'0 0.0
2016-Apr-29 17:28N 49°17' W 123°06'0 0.0
2016-Apr-29 16:33N 49°17' W 123°06'0 0.0
2016-Apr-29 15:33N 49°17' W 123°06'0 0.0
2016-Apr-29 14:33N 49°17' W 123°06'0 0.0
2016-Apr-29 13:33N 49°17' W 123°06'0 0.0
2016-Apr-29 12:33N 49°17' W 123°06'0 0.0
2016-Apr-29 11:33N 49°17' W 123°06'0 0.0
2016-Apr-29 10:31N 49°17' W 123°06'0 0.0
2016-Apr-29 09:33N 49°17' W 123°06'0 0.0
2016-Apr-29 08:33N 49°17' W 123°06'0 0.0
2016-Apr-29 07:33N 49°17' W 123°06'0 0.0
2016-Apr-29 06:29N 49°17' W 123°06'0 0.0
2016-Apr-29 05:33N 49°17' W 123°06'0 0.0
2016-Apr-29 04:26N 49°17' W 123°06'0 0.0
2016-Apr-29 03:33N 49°17' W 123°06'0 0.0
2016-Apr-29 02:23N 49°17' W 123°06'0 0.0
2016-Apr-29 01:33N 49°17' W 123°06'0 0.0
2016-Apr-29 00:33N 49°17' W 123°06'0 0.0
2016-Apr-28 23:33N 49°17' W 123°06'0 0.0
2016-Apr-28 22:25N 49°17' W 123°06'0 0.0
2016-Apr-28 21:33N 49°17' W 123°06'0 0.0
2016-Apr-28 20:34N 49°17' W 123°06'0 0.0
2016-Apr-28 19:33N 49°17' W 123°06'0 0.0
2016-Apr-28 18:33N 49°17' W 123°06'0 0.0
2016-Apr-28 17:31N 49°17' W 123°06'0 0.0
2016-Apr-28 16:33N 49°17' W 123°06'0 0.0
2016-Apr-28 15:33N 49°17' W 123°06'0 0.0
2016-Apr-28 14:31N 49°17' W 123°06'0 0.0
2016-Apr-28 13:33N 49°17' W 123°06'0 0.0
2016-Apr-28 12:33N 49°17' W 123°06'0 0.0
2016-Apr-28 11:33N 49°17' W 123°06'0 0.0
2016-Apr-28 10:33N 49°17' W 123°06'0 0.0
2016-Apr-28 09:31N 49°17' W 123°06'0 0.0
2016-Apr-28 08:33N 49°17' W 123°06'0 0.0
2016-Apr-28 07:33N 49°17' W 123°06'0 0.0
2016-Apr-28 06:32N 49°17' W 123°06'0 0.0
2016-Apr-28 05:33N 49°17' W 123°06'0 0.0
2016-Apr-28 04:32N 49°17' W 123°06'0 0.0
2016-Apr-28 03:33N 49°17' W 123°06'0 0.0
2016-Apr-28 02:19N 49°17' W 123°06'0 0.0
2016-Apr-28 01:33N 49°17' W 123°06'0 0.0
2016-Apr-28 00:33N 49°17' W 123°06'0 0.0
2016-Apr-27 23:32N 49°17' W 123°06'0 0.0
2016-Apr-27 22:33N 49°17' W 123°06'0 0.0
2016-Apr-27 21:32N 49°17' W 123°06'0 0.0
2016-Apr-27 20:33N 49°17' W 123°06'0 0.0
2016-Apr-27 19:33N 49°17' W 123°06'0 0.0
2016-Apr-27 18:33N 49°17' W 123°06'0 0.0
2016-Apr-27 17:33N 49°17' W 123°06'0 0.0
2016-Apr-27 16:33N 49°17' W 123°06'0 0.0
2016-Apr-27 15:33N 49°17' W 123°06'0 0.0
2016-Apr-27 14:33N 49°17' W 123°06'0 0.0
2016-Apr-27 13:33N 49°17' W 123°06'0 0.0
2016-Apr-27 12:33N 49°17' W 123°06'0 0.0
2016-Apr-27 11:33N 49°17' W 123°06'0 0.0
2016-Apr-27 10:33N 49°17' W 123°06'0 0.0
2016-Apr-27 09:32N 49°17' W 123°06'0 0.0
2016-Apr-27 08:33N 49°17' W 123°06'0 0.0
2016-Apr-27 07:33N 49°17' W 123°06'0 0.0
2016-Apr-27 06:29N 49°17' W 123°06'0 0.0
2016-Apr-27 05:33N 49°17' W 123°06'0 0.0
2016-Apr-27 04:31N 49°17' W 123°06'0 0.0
2016-Apr-27 03:33N 49°17' W 123°06'0 0.0
2016-Apr-27 02:18N 49°17' W 123°06'0 0.1
2016-Apr-27 01:33N 49°17' W 123°06'0 0.0
2016-Apr-27 00:34N 49°17' W 123°06'0 0.4
2016-Apr-26 23:34N 49°18' W 123°06'2 1.7
2016-Apr-26 22:33N 49°18' W 123°04'2 1.7
2016-Apr-26 21:34N 49°17' W 123°06'0 0.2
2016-Apr-26 20:33N 49°17' W 123°06'2 1.7
2016-Apr-26 19:33N 49°18' W 123°03'2 1.8
2016-Apr-26 18:33N 49°17' W 123°06'0 0.0
2016-Apr-26 17:33N 49°17' W 123°06'2 1.7
2016-Apr-26 16:33N 49°18' W 123°04'2 1.7
2016-Apr-26 15:33N 49°17' W 123°06'0 0.0
2016-Apr-26 14:34N 49°17' W 123°06'0 0.0
2016-Apr-26 13:33N 49°17' W 123°06'0 0.0
2016-Apr-26 12:34N 49°17' W 123°06'0 0.0
2016-Apr-26 11:33N 49°17' W 123°06'0 0.0
2016-Apr-26 10:32N 49°17' W 123°06'0 0.0
2016-Apr-26 09:33N 49°17' W 123°06'0 0.0
2016-Apr-26 08:33N 49°17' W 123°06'0 0.0
2016-Apr-26 07:33N 49°17' W 123°06'0 0.0
2016-Apr-26 06:32N 49°17' W 123°06'0 0.0
2016-Apr-26 05:34N 49°17' W 123°06'0 0.0
2016-Apr-26 04:31N 49°17' W 123°06'0 0.0
2016-Apr-26 03:33N 49°17' W 123°06'0 0.0
2016-Apr-26 02:32N 49°17' W 123°06'0 0.0
2016-Apr-26 01:24N 49°17' W 123°06'0 0.0
2016-Apr-26 00:33N 49°17' W 123°06'0 0.0
2016-Apr-25 23:33N 49°17' W 123°06'1 1.2
2016-Apr-25 22:33N 49°18' W 123°07'1 1.2
2016-Apr-25 21:33N 49°17' W 123°06'0 0.0
2016-Apr-25 20:33N 49°17' W 123°06'1 1.4
2016-Apr-25 19:34N 49°18' W 123°07'3 2.5
2016-Apr-25 18:33N 49°17' W 123°04'2 1.5
2016-Apr-25 17:33N 49°17' W 123°06'0 0.0
2016-Apr-25 16:33N 49°17' W 123°06'0 0.0
2016-Apr-25 15:33N 49°17' W 123°06'0 0.0
2016-Apr-25 14:33N 49°17' W 123°06'0 0.0
2016-Apr-25 13:33N 49°17' W 123°06'0 0.0
2016-Apr-25 12:33N 49°17' W 123°06'0 0.0
2016-Apr-25 11:33N 49°17' W 123°06'0 0.0
2016-Apr-25 10:33N 49°17' W 123°06'0 0.0
2016-Apr-25 09:32N 49°17' W 123°06'0 0.0
2016-Apr-25 08:33N 49°17' W 123°06'0 0.0
2016-Apr-25 07:33N 49°17' W 123°06'0 0.1
2016-Apr-25 06:33N 49°17' W 123°06'0 0.0
2016-Apr-25 05:33N 49°17' W 123°06'0 0.0
2016-Apr-25 04:31N 49°17' W 123°06'0 0.0
2016-Apr-25 03:32N 49°17' W 123°06'0 0.0
2016-Apr-25 02:33N 49°17' W 123°06'0 0.0
2016-Apr-25 01:32N 49°17' W 123°06'0 0.0
2016-Apr-25 00:33N 49°17' W 123°06'0 0.0
2016-Apr-24 23:33N 49°17' W 123°06'1 0.9
2016-Apr-24 22:33N 49°18' W 123°07'1 0.8
2016-Apr-24 21:34N 49°18' W 123°07'1 1.1
2016-Apr-24 20:33N 49°19' W 123°08'2 2.3
2016-Apr-24 19:33N 49°18' W 123°05'1 1.4
2016-Apr-24 18:33N 49°17' W 123°06'0 0.0
2016-Apr-24 17:33N 49°17' W 123°06'0 0.0
2016-Apr-24 16:33N 49°17' W 123°06'2 2.3
2016-Apr-24 15:33N 49°18' W 123°03'2 2.2
2016-Apr-24 14:31N 49°17' W 123°06'0 0.0
2016-Apr-24 13:33N 49°17' W 123°06'0 0.1
2016-Apr-24 12:34N 49°17' W 123°06'0 0.0
2016-Apr-24 11:33N 49°17' W 123°06'0 0.0
2016-Apr-24 10:30N 49°17' W 123°06'0 0.0
2016-Apr-24 09:33N 49°17' W 123°06'0 0.0
2016-Apr-24 08:33N 49°17' W 123°06'0 0.0
2016-Apr-24 07:33N 49°17' W 123°06'0 0.0
2016-Apr-24 06:31N 49°17' W 123°06'0 0.0
2016-Apr-24 05:33N 49°17' W 123°06'0 0.0
2016-Apr-24 04:31N 49°17' W 123°06'0 0.0
2016-Apr-24 03:33N 49°17' W 123°06'0 0.0
2016-Apr-24 02:28N 49°17' W 123°06'0 0.1
2016-Apr-24 01:33N 49°17' W 123°06'0 0.0
2016-Apr-24 00:33N 49°17' W 123°06'0 0.0
2016-Apr-23 23:34N 49°17' W 123°06'1 1.0
2016-Apr-23 22:33N 49°18' W 123°06'2 1.7
2016-Apr-23 21:33N 49°19' W 123°08'0 0.4
2016-Apr-23 20:33N 49°19' W 123°09'3 2.5
2016-Apr-23 19:34N 49°17' W 123°06'0 0.0
2016-Apr-23 18:33N 49°17' W 123°06'0 0.0
2016-Apr-23 17:33N 49°17' W 123°06'0 0.0
2016-Apr-23 16:33N 49°17' W 123°06'0 0.0
2016-Apr-23 15:27N 49°17' W 123°06'0 0.0
2016-Apr-23 14:32N 49°17' W 123°06'0 0.0
2016-Apr-23 13:33N 49°17' W 123°06'0 0.0
2016-Apr-23 12:33N 49°17' W 123°06'0 0.0
2016-Apr-23 11:33N 49°17' W 123°06'0 0.0
2016-Apr-23 10:32N 49°17' W 123°06'0 0.0
2016-Apr-23 09:33N 49°17' W 123°06'0 0.0
2016-Apr-23 08:33N 49°17' W 123°06'0 0.0
2016-Apr-23 07:32N 49°17' W 123°06'0 0.0
2016-Apr-23 06:33N 49°17' W 123°06'  
Track history (hours):
 
Tides and Currents Weather Stations Pressure Air Temp Water Temp Dewpoint Dewpoint Depression Visibility Wind Speed Wind Dir Waves Ship Positions

Takaya

Last reported at 2016-May-03 06:33 UTC. Time now 2016-May-03 06:52 UTC.
Position N 49°17' W 123°06'.

; draft 1.4 m.

Type: Port tender. MMSI: 316014014.

Date/timePositionNaut miles runAvg speedWind from/ knotsBaromVisibWave heightAir tempDewpointWater temp
2016-May-03 06:33N 49°17' W 123°06'0 0.0
2016-May-03 05:33N 49°17' W 123°06'0 0.0
2016-May-03 04:33N 49°17' W 123°06'0 0.0
2016-May-03 03:33N 49°17' W 123°06'0 0.0
2016-May-03 02:04N 49°17' W 123°06'0 0.1
2016-May-03 01:33N 49°17' W 123°06'0 0.0
2016-May-03 00:31N 49°17' W 123°06'0 0.0
2016-May-02 23:33N 49°17' W 123°06'2 1.7
2016-May-02 22:34N 49°18' W 123°04'2 1.6
2016-May-02 21:33N 49°17' W 123°06'0 0.0
2016-May-02 20:33N 49°17' W 123°06'0 0.0
2016-May-02 19:33N 49°17' W 123°06'1 1.4
2016-May-02 18:33N 49°18' W 123°08'6 6.2
2016-May-02 17:33N 49°18' W 122°58'5 5.0
2016-May-02 16:33N 49°17' W 123°06'0 0.0
2016-May-02 15:33N 49°17' W 123°06'0 0.0
2016-May-02 14:33N 49°17' W 123°06'0 0.0
2016-May-02 13:33N 49°17' W 123°06'0 0.0
2016-May-02 12:33N 49°17' W 123°06'0 0.0
2016-May-02 11:33N 49°17' W 123°06'0 0.0
2016-May-02 10:31N 49°17' W 123°06'0 0.0
2016-May-02 09:30N 49°17' W 123°06'0 0.0
2016-May-02 08:33N 49°17' W 123°06'0 0.0
2016-May-02 07:33N 49°17' W 123°06'0 0.0
2016-May-02 06:33N 49°17' W 123°06'0 0.0
2016-May-02 05:25N 49°17' W 123°06'0 0.0
2016-May-02 04:32N 49°17' W 123°06'0 0.0
2016-May-02 03:33N 49°17' W 123°06'0 0.0
2016-May-02 01:33N 49°17' W 123°06'0 0.0
2016-May-02 00:33N 49°17' W 123°06'1 1.5
2016-May-01 23:34N 49°18' W 123°07'1 0.7
2016-May-01 22:34N 49°19' W 123°08'1 0.6
2016-May-01 21:33N 49°19' W 123°09'3 2.7
2016-May-01 20:33N 49°17' W 123°06'0 0.0
2016-May-01 19:33N 49°17' W 123°06'1 0.7
2016-May-01 18:34N 49°18' W 123°07'2 2.3
2016-May-01 17:33N 49°17' W 123°10'2 2.5
2016-May-01 16:33N 49°17' W 123°06'0 0.0
2016-May-01 15:33N 49°17' W 123°06'0 0.0
2016-May-01 14:33N 49°17' W 123°06'1 1.3
2016-May-01 13:33N 49°18' W 123°05'1 1.3
2016-May-01 12:33N 49°17' W 123°06'0 0.0
2016-May-01 11:33N 49°17' W 123°06'0 0.0
2016-May-01 10:33N 49°17' W 123°06'0 0.0
2016-May-01 09:33N 49°17' W 123°06'0 0.0
2016-May-01 08:33N 49°17' W 123°06'0 0.0
2016-May-01 07:33N 49°17' W 123°06'0 0.0
2016-May-01 06:33N 49°17' W 123°06'0 0.0
2016-May-01 05:33N 49°17' W 123°06'0 0.0
2016-May-01 04:33N 49°17' W 123°06'0 0.0
2016-May-01 03:33N 49°17' W 123°06'0 0.0
2016-May-01 02:11N 49°17' W 123°06'0 0.0
2016-May-01 01:33N 49°17' W 123°06'0 0.0
2016-May-01 00:30N 49°17' W 123°06'0 0.3
2016-Apr-30 23:33N 49°17' W 123°06'5 5.4
2016-Apr-30 22:33N 49°18' W 122°58'2 2.2
2016-Apr-30 21:33N 49°18' W 123°01'3 3.3
2016-Apr-30 20:33N 49°17' W 123°06'0 0.0
2016-Apr-30 19:33N 49°17' W 123°06'0 0.0
2016-Apr-30 18:33N 49°17' W 123°06'2 1.6
2016-Apr-30 17:33N 49°18' W 123°04'2 1.6
2016-Apr-30 16:33N 49°17' W 123°06'0 0.0
2016-Apr-30 15:33N 49°17' W 123°06'2 1.5
2016-Apr-30 14:33N 49°19' W 123°06'2 1.6
2016-Apr-30 13:33N 49°17' W 123°04'1 1.3
2016-Apr-30 12:33N 49°17' W 123°06'0 0.0
2016-Apr-30 11:33N 49°17' W 123°06'0 0.0
2016-Apr-30 10:33N 49°17' W 123°06'0 0.0
2016-Apr-30 09:33N 49°17' W 123°06'0 0.0
2016-Apr-30 08:33N 49°17' W 123°06'0 0.0
2016-Apr-30 07:33N 49°17' W 123°06'0 0.0
2016-Apr-30 06:33N 49°17' W 123°06'0 0.0
2016-Apr-30 05:33N 49°17' W 123°06'0 0.0
2016-Apr-30 04:33N 49°17' W 123°06'0 0.0
2016-Apr-30 03:33N 49°17' W 123°06'0 0.0
2016-Apr-30 02:06N 49°17' W 123°06'0 0.0
2016-Apr-30 01:34N 49°17' W 123°06'0 0.0
2016-Apr-30 00:33N 49°17' W 123°06'1 1.4
2016-Apr-29 23:33N 49°18' W 123°07'1 1.4
2016-Apr-29 22:33N 49°17' W 123°06'0 0.0
2016-Apr-29 21:31N 49°17' W 123°06'0 0.0
2016-Apr-29 20:33N 49°17' W 123°06'0 0.0
2016-Apr-29 19:33N 49°17' W 123°06'0 0.0
2016-Apr-29 18:33N 49°17' W 123°06'0 0.0
2016-Apr-29 17:28N 49°17' W 123°06'0 0.0
2016-Apr-29 16:33N 49°17' W 123°06'0 0.0
2016-Apr-29 15:33N 49°17' W 123°06'0 0.0
2016-Apr-29 14:33N 49°17' W 123°06'0 0.0
2016-Apr-29 13:33N 49°17' W 123°06'0 0.0
2016-Apr-29 12:33N 49°17' W 123°06'0 0.0
2016-Apr-29 11:33N 49°17' W 123°06'0 0.0
2016-Apr-29 10:31N 49°17' W 123°06'0 0.0
2016-Apr-29 09:33N 49°17' W 123°06'0 0.0
2016-Apr-29 08:33N 49°17' W 123°06'0 0.0
2016-Apr-29 07:33N 49°17' W 123°06'0 0.0
2016-Apr-29 06:29N 49°17' W 123°06'0 0.0
2016-Apr-29 05:33N 49°17' W 123°06'0 0.0
2016-Apr-29 04:26N 49°17' W 123°06'0 0.0
2016-Apr-29 03:33N 49°17' W 123°06'0 0.0
2016-Apr-29 02:23N 49°17' W 123°06'0 0.0
2016-Apr-29 01:33N 49°17' W 123°06'0 0.0
2016-Apr-29 00:33N 49°17' W 123°06'0 0.0
2016-Apr-28 23:33N 49°17' W 123°06'0 0.0
2016-Apr-28 22:25N 49°17' W 123°06'0 0.0
2016-Apr-28 21:33N 49°17' W 123°06'0 0.0
2016-Apr-28 20:34N 49°17' W 123°06'0 0.0
2016-Apr-28 19:33N 49°17' W 123°06'0 0.0
2016-Apr-28 18:33N 49°17' W 123°06'0 0.0
2016-Apr-28 17:31N 49°17' W 123°06'0 0.0
2016-Apr-28 16:33N 49°17' W 123°06'0 0.0
2016-Apr-28 15:33N 49°17' W 123°06'0 0.0
2016-Apr-28 14:31N 49°17' W 123°06'0 0.0
2016-Apr-28 13:33N 49°17' W 123°06'0 0.0
2016-Apr-28 12:33N 49°17' W 123°06'0 0.0
2016-Apr-28 11:33N 49°17' W 123°06'0 0.0
2016-Apr-28 10:33N 49°17' W 123°06'0 0.0
2016-Apr-28 09:31N 49°17' W 123°06'0 0.0
2016-Apr-28 08:33N 49°17' W 123°06'0 0.0
2016-Apr-28 07:33N 49°17' W 123°06'0 0.0
2016-Apr-28 06:32N 49°17' W 123°06'0 0.0
2016-Apr-28 05:33N 49°17' W 123°06'0 0.0
2016-Apr-28 04:32N 49°17' W 123°06'0 0.0
2016-Apr-28 03:33N 49°17' W 123°06'0 0.0
2016-Apr-28 02:19N 49°17' W 123°06'0 0.0
2016-Apr-28 01:33N 49°17' W 123°06'0 0.0
2016-Apr-28 00:33N 49°17' W 123°06'0 0.0
2016-Apr-27 23:32N 49°17' W 123°06'0 0.0
2016-Apr-27 22:33N 49°17' W 123°06'0 0.0
2016-Apr-27 21:32N 49°17' W 123°06'0 0.0
2016-Apr-27 20:33N 49°17' W 123°06'0 0.0
2016-Apr-27 19:33N 49°17' W 123°06'0 0.0
2016-Apr-27 18:33N 49°17' W 123°06'0 0.0
2016-Apr-27 17:33N 49°17' W 123°06'0 0.0
2016-Apr-27 16:33N 49°17' W 123°06'0 0.0
2016-Apr-27 15:33N 49°17' W 123°06'0 0.0
2016-Apr-27 14:33N 49°17' W 123°06'0 0.0
2016-Apr-27 13:33N 49°17' W 123°06'0 0.0
2016-Apr-27 12:33N 49°17' W 123°06'0 0.0
2016-Apr-27 11:33N 49°17' W 123°06'0 0.0
2016-Apr-27 10:33N 49°17' W 123°06'0 0.0
2016-Apr-27 09:32N 49°17' W 123°06'0 0.0
2016-Apr-27 08:33N 49°17' W 123°06'0 0.0
2016-Apr-27 07:33N 49°17' W 123°06'0 0.0
2016-Apr-27 06:29N 49°17' W 123°06'0 0.0
2016-Apr-27 05:33N 49°17' W 123°06'0 0.0
2016-Apr-27 04:31N 49°17' W 123°06'0 0.0
2016-Apr-27 03:33N 49°17' W 123°06'0 0.0
2016-Apr-27 02:18N 49°17' W 123°06'0 0.1
2016-Apr-27 01:33N 49°17' W 123°06'0 0.0
2016-Apr-27 00:34N 49°17' W 123°06'0 0.4
2016-Apr-26 23:34N 49°18' W 123°06'2 1.7
2016-Apr-26 22:33N 49°18' W 123°04'2 1.7
2016-Apr-26 21:34N 49°17' W 123°06'0 0.2
2016-Apr-26 20:33N 49°17' W 123°06'2 1.7
2016-Apr-26 19:33N 49°18' W 123°03'2 1.8
2016-Apr-26 18:33N 49°17' W 123°06'0 0.0
2016-Apr-26 17:33N 49°17' W 123°06'2 1.7
2016-Apr-26 16:33N 49°18' W 123°04'2 1.7
2016-Apr-26 15:33N 49°17' W 123°06'0 0.0
2016-Apr-26 14:34N 49°17' W 123°06'0 0.0
2016-Apr-26 13:33N 49°17' W 123°06'0 0.0
2016-Apr-26 12:34N 49°17' W 123°06'0 0.0
2016-Apr-26 11:33N 49°17' W 123°06'0 0.0
2016-Apr-26 10:32N 49°17' W 123°06'0 0.0
2016-Apr-26 09:33N 49°17' W 123°06'0 0.0
2016-Apr-26 08:33N 49°17' W 123°06'0 0.0
2016-Apr-26 07:33N 49°17' W 123°06'0 0.0
2016-Apr-26 06:32N 49°17' W 123°06'0 0.0
2016-Apr-26 05:34N 49°17' W 123°06'0 0.0
2016-Apr-26 04:31N 49°17' W 123°06'0 0.0
2016-Apr-26 03:33N 49°17' W 123°06'0 0.0
2016-Apr-26 02:32N 49°17' W 123°06'0 0.0
2016-Apr-26 01:24N 49°17' W 123°06'0 0.0
2016-Apr-26 00:33N 49°17' W 123°06'0 0.0
2016-Apr-25 23:33N 49°17' W 123°06'1 1.2
2016-Apr-25 22:33N 49°18' W 123°07'1 1.2
2016-Apr-25 21:33N 49°17' W 123°06'0 0.0
2016-Apr-25 20:33N 49°17' W 123°06'1 1.4
2016-Apr-25 19:34N 49°18' W 123°07'3 2.5
2016-Apr-25 18:33N 49°17' W 123°04'2 1.5
2016-Apr-25 17:33N 49°17' W 123°06'0 0.0
2016-Apr-25 16:33N 49°17' W 123°06'0 0.0
2016-Apr-25 15:33N 49°17' W 123°06'0 0.0
2016-Apr-25 14:33N 49°17' W 123°06'0 0.0
2016-Apr-25 13:33N 49°17' W 123°06'0 0.0
2016-Apr-25 12:33N 49°17' W 123°06'0 0.0
2016-Apr-25 11:33N 49°17' W 123°06'0 0.0
2016-Apr-25 10:33N 49°17' W 123°06'0 0.0
2016-Apr-25 09:32N 49°17' W 123°06'0 0.0
2016-Apr-25 08:33N 49°17' W 123°06'0 0.0
2016-Apr-25 07:33N 49°17' W 123°06'0 0.1
2016-Apr-25 06:33N 49°17' W 123°06'0 0.0
2016-Apr-25 05:33N 49°17' W 123°06'0 0.0
2016-Apr-25 04:31N 49°17' W 123°06'0 0.0
2016-Apr-25 03:32N 49°17' W 123°06'0 0.0
2016-Apr-25 02:33N 49°17' W 123°06'0 0.0
2016-Apr-25 01:32N 49°17' W 123°06'0 0.0
2016-Apr-25 00:33N 49°17' W 123°06'0 0.0
2016-Apr-24 23:33N 49°17' W 123°06'1 0.9
2016-Apr-24 22:33N 49°18' W 123°07'1 0.8
2016-Apr-24 21:34N 49°18' W 123°07'1 1.1
2016-Apr-24 20:33N 49°19' W 123°08'2 2.3
2016-Apr-24 19:33N 49°18' W 123°05'1 1.4
2016-Apr-24 18:33N 49°17' W 123°06'0 0.0
2016-Apr-24 17:33N 49°17' W 123°06'0 0.0
2016-Apr-24 16:33N 49°17' W 123°06'2 2.3
2016-Apr-24 15:33N 49°18' W 123°03'2 2.2
2016-Apr-24 14:31N 49°17' W 123°06'0 0.0
2016-Apr-24 13:33N 49°17' W 123°06'0 0.1
2016-Apr-24 12:34N 49°17' W 123°06'0 0.0
2016-Apr-24 11:33N 49°17' W 123°06'0 0.0
2016-Apr-24 10:30N 49°17' W 123°06'0 0.0
2016-Apr-24 09:33N 49°17' W 123°06'0 0.0
2016-Apr-24 08:33N 49°17' W 123°06'0 0.0
2016-Apr-24 07:33N 49°17' W 123°06'0 0.0
2016-Apr-24 06:31N 49°17' W 123°06'0 0.0
2016-Apr-24 05:33N 49°17' W 123°06'0 0.0
2016-Apr-24 04:31N 49°17' W 123°06'0 0.0
2016-Apr-24 03:33N 49°17' W 123°06'0 0.0
2016-Apr-24 02:28N 49°17' W 123°06'0 0.1
2016-Apr-24 01:33N 49°17' W 123°06'0 0.0
2016-Apr-24 00:33N 49°17' W 123°06'0 0.0
2016-Apr-23 23:34N 49°17' W 123°06'1 1.0
2016-Apr-23 22:33N 49°18' W 123°06'2 1.7
2016-Apr-23 21:33N 49°19' W 123°08'0 0.4
2016-Apr-23 20:33N 49°19' W 123°09'3 2.5
2016-Apr-23 19:34N 49°17' W 123°06'0 0.0
2016-Apr-23 18:33N 49°17' W 123°06'0 0.0
2016-Apr-23 17:33N 49°17' W 123°06'0 0.0
2016-Apr-23 16:33N 49°17' W 123°06'0 0.0
2016-Apr-23 15:27N 49°17' W 123°06'0 0.0
2016-Apr-23 14:32N 49°17' W 123°06'0 0.0
2016-Apr-23 13:33N 49°17' W 123°06'0 0.0
2016-Apr-23 12:33N 49°17' W 123°06'0 0.0
2016-Apr-23 11:33N 49°17' W 123°06'0 0.0
2016-Apr-23 10:32N 49°17' W 123°06'0 0.0
2016-Apr-23 09:33N 49°17' W 123°06'0 0.0
2016-Apr-23 08:33N 49°17' W 123°06'0 0.0
2016-Apr-23 07:32N 49°17' W 123°06'0 0.0
2016-Apr-23 06:33N 49°17' W 123°06'  

Dump ship's entire track history